createdAt,value
2019-05-28T00:02:13.001Z,95085.69
2019-05-28T00:04:42.551Z,95089.33
2019-05-28T00:07:12.043Z,95092.91
2019-05-28T00:09:41.657Z,95096.27
2019-05-28T00:12:11.276Z,95091.29
2019-05-28T00:14:40.871Z,95077.75
2019-05-28T00:17:10.510Z,95064.90
2019-05-28T00:19:40.159Z,95065.36
2019-05-28T00:22:09.686Z,95065.39
2019-05-28T00:24:39.337Z,95062.74
2019-05-28T00:27:08.939Z,95056.30
2019-05-28T00:29:38.536Z,95052.16
2019-05-28T00:32:08.129Z,95058.07
2019-05-28T00:34:37.707Z,95052.54
2019-05-28T00:37:07.316Z,95049.88
2019-05-28T00:39:36.904Z,95057.03
2019-05-28T00:42:06.626Z,95062.67
2019-05-28T00:44:36.238Z,95062.21
2019-05-28T00:47:05.817Z,95063.16
2019-05-28T00:49:35.499Z,95059.47
2019-05-28T00:52:05.115Z,95055.75
2019-05-28T00:54:34.701Z,95061.79
2019-05-28T00:57:04.667Z,95066.73
2019-05-28T00:59:34.912Z,95064.09
2019-05-28T01:02:04.649Z,95065.80
2019-05-28T01:04:34.250Z,95063.46
2019-05-28T01:07:03.937Z,95055.00
2019-05-28T01:09:33.438Z,95044.73
2019-05-28T01:12:03.177Z,95051.22
2019-05-28T01:14:32.824Z,95049.56
2019-05-28T01:17:02.417Z,95034.42
2019-05-28T01:19:31.989Z,95040.63
2019-05-28T01:22:01.581Z,95049.80
2019-05-28T01:24:31.173Z,95040.17
2019-05-28T01:27:00.659Z,95038.15
2019-05-28T01:29:30.281Z,95034.83
2019-05-28T01:31:59.945Z,95019.47
2019-05-28T01:34:29.530Z,95022.44
2019-05-28T01:36:59.184Z,95028.02
2019-05-28T01:39:28.705Z,95019.61
2019-05-28T01:41:58.270Z,95020.43
2019-05-28T01:44:27.939Z,95019.53
2019-05-28T01:46:57.539Z,95015.45
2019-05-28T01:49:27.254Z,95017.93
2019-05-28T01:51:56.769Z,95020.81
2019-05-28T01:54:26.373Z,95016.10
2019-05-28T01:56:55.902Z,95013.14
2019-05-28T01:59:25.421Z,95001.47
2019-05-28T02:01:54.969Z,95003.16
2019-05-28T02:04:24.438Z,95011.15
2019-05-28T02:06:53.920Z,95013.16
2019-05-28T02:09:23.520Z,95013.80
2019-05-28T02:11:53.050Z,95002.56
2019-05-28T02:14:22.605Z,94998.29
2019-05-28T02:16:52.145Z,95007.38
2019-05-28T02:19:21.638Z,95011.07
2019-05-28T02:21:51.630Z,95010.66
2019-05-28T02:24:21.231Z,95015.38
2019-05-28T02:26:50.796Z,95018.66
2019-05-28T02:29:20.254Z,95017.54
2019-05-28T02:31:49.793Z,95013.45
2019-05-28T02:34:19.609Z,95003.42
2019-05-28T02:36:49.206Z,95018.98
2019-05-28T02:39:18.876Z,95005.62
2019-05-28T02:41:48.418Z,95009.05
2019-05-28T02:44:17.945Z,95019.80
2019-05-28T02:46:47.479Z,95015.00
2019-05-28T02:49:17.030Z,95009.72
2019-05-28T02:51:47.112Z,95010.54
2019-05-28T02:54:17.025Z,95007.66
2019-05-28T02:56:47.988Z,95007.80
2019-05-28T02:59:18.765Z,94909.58
2019-05-28T03:01:51.058Z,95007.31
2019-05-28T03:04:23.680Z,95015.97
2019-05-28T03:06:54.964Z,95011.24
2019-05-28T03:09:26.351Z,95011.25
2019-05-28T03:11:55.937Z,95011.23
2019-05-28T03:14:25.526Z,95003.45
2019-05-28T03:16:58.301Z,95007.53
2019-05-28T03:19:29.209Z,95007.12
2019-05-28T03:22:01.916Z,95006.83
2019-05-28T03:24:33.714Z,95004.27
2019-05-28T03:27:03.291Z,95004.40
2019-05-28T03:29:32.969Z,95007.05
2019-05-28T03:32:07.757Z,94995.05
2019-05-28T03:34:34.049Z,94999.98
2019-05-28T03:37:04.912Z,94996.41
2019-05-28T03:39:37.127Z,95004.84
2019-05-28T03:42:06.692Z,94998.08
2019-05-28T03:44:36.224Z,95005.22
2019-05-28T03:47:05.886Z,95009.06
2019-05-28T03:49:35.352Z,95009.52
2019-05-28T03:52:05.007Z,95014.94
2019-05-28T03:54:34.609Z,95011.78
2019-05-28T03:57:04.284Z,95016.04
2019-05-28T03:59:33.840Z,95017.90
2019-05-28T04:02:03.462Z,95014.83
2019-05-28T04:04:32.957Z,95017.59
2019-05-28T04:07:02.355Z,95010.70
2019-05-28T04:09:33.930Z,95007.58
2019-05-28T04:12:03.115Z,95006.55
2019-05-28T04:14:32.691Z,95006.30
2019-05-28T04:17:02.277Z,95005.53
2019-05-28T04:19:31.899Z,95006.35
2019-05-28T04:22:01.448Z,95017.20
2019-05-28T04:24:30.998Z,95018.65
2019-05-28T04:27:00.588Z,95019.61
2019-05-28T04:29:30.137Z,95023.49
2019-05-28T04:31:59.681Z,95018.80
2019-05-28T04:34:29.264Z,95024.50
2019-05-28T04:36:58.783Z,95021.33
2019-05-28T04:39:28.263Z,95025.71
2019-05-28T04:41:57.857Z,95029.48
2019-05-28T04:44:27.387Z,95028.23
2019-05-28T04:46:56.941Z,95025.33
2019-05-28T04:49:26.535Z,95014.86
2019-05-28T04:51:56.105Z,95024.06
2019-05-28T04:54:25.611Z,95016.48
2019-05-28T04:56:55.173Z,95010.88
2019-05-28T04:59:24.718Z,95007.77
2019-05-28T05:01:54.203Z,95015.39
2019-05-28T05:04:23.825Z,95002.24
2019-05-28T05:06:53.352Z,95009.58
2019-05-28T05:09:22.884Z,95003.95
2019-05-28T05:11:52.417Z,95001.84
2019-05-28T05:14:21.971Z,95001.52
2019-05-28T05:16:51.535Z,95004.36
2019-05-28T05:19:21.092Z,95007.48
2019-05-28T05:21:50.700Z,95009.32
2019-05-28T05:24:20.722Z,95006.11
2019-05-28T05:26:52.895Z,95007.27
2019-05-28T05:29:22.056Z,95014.82
2019-05-28T05:31:51.722Z,94993.16
2019-05-28T05:34:21.220Z,94993.16
2019-05-28T05:36:50.610Z,95000.53
2019-05-28T05:39:20.282Z,95009.44
2019-05-28T05:41:49.986Z,95002.99
2019-05-28T05:44:19.597Z,95002.70
2019-05-28T05:46:49.244Z,94992.34
2019-05-28T05:49:18.778Z,94993.23
2019-05-28T05:51:48.586Z,95000.30
2019-05-28T05:54:18.230Z,94985.00
2019-05-28T05:56:47.989Z,94976.44
2019-05-28T05:59:17.583Z,94980.20
2019-05-28T06:01:47.261Z,94980.76
2019-05-28T06:04:16.808Z,94977.09
2019-05-28T06:06:46.272Z,94977.23
2019-05-28T06:09:15.862Z,94983.31
2019-05-28T06:11:45.567Z,94975.17
2019-05-28T06:14:15.225Z,94978.90
2019-05-28T06:16:44.776Z,94972.30
2019-05-28T06:19:14.369Z,94984.33
2019-05-28T06:21:43.870Z,94977.42
2019-05-28T06:24:13.431Z,94978.59
2019-05-28T06:26:43.001Z,94970.65
2019-05-28T06:29:12.491Z,94960.43
2019-05-28T06:31:42.005Z,94965.20
2019-05-28T06:34:11.551Z,94965.55
2019-05-28T06:36:41.154Z,94970.02
2019-05-28T06:39:10.738Z,94971.79
2019-05-28T06:41:40.331Z,94967.95
2019-05-28T06:44:09.922Z,94967.58
2019-05-28T06:46:39.526Z,94969.63
2019-05-28T06:49:09.135Z,94965.38
2019-05-28T06:51:38.799Z,94960.45
2019-05-28T06:54:11.642Z,94961.36
2019-05-28T06:56:39.716Z,94955.11
2019-05-28T06:59:09.347Z,94948.42
2019-05-28T07:01:39.128Z,94954.30
2019-05-28T07:04:14.107Z,94948.22
2019-05-28T07:06:40.162Z,94944.14
2019-05-28T07:09:09.642Z,94940.05
2019-05-28T07:11:39.248Z,94944.48
2019-05-28T07:14:08.867Z,94933.36
2019-05-28T07:16:51.989Z,94941.78
2019-05-28T07:19:23.497Z,94940.76
2019-05-28T07:21:41.009Z,94938.55
2019-05-28T07:24:10.560Z,94948.47
2019-05-28T07:26:40.147Z,94949.45
2019-05-28T07:29:09.766Z,94937.59
2019-05-28T07:31:39.344Z,94930.85
2019-05-28T07:34:08.849Z,94937.28
2019-05-28T07:36:38.410Z,94932.52
2019-05-28T07:39:11.981Z,94928.35
2019-05-28T07:41:40.002Z,94923.88
2019-05-28T07:44:09.599Z,94923.38
2019-05-28T07:46:39.548Z,94926.74
2019-05-28T07:49:09.107Z,94919.62
2019-05-28T07:51:38.611Z,94914.31
2019-05-28T07:54:08.257Z,94918.11
2019-05-28T07:56:37.923Z,94920.37
2019-05-28T07:59:07.544Z,94913.55
2019-05-28T08:01:37.154Z,94912.19
2019-05-28T08:04:06.934Z,94911.41
2019-05-28T08:06:51.691Z,94909.23
2019-05-28T08:09:08.671Z,94900.23
2019-05-28T08:11:38.345Z,94897.09
2019-05-28T08:14:08.073Z,94900.35
2019-05-28T08:16:50.074Z,94892.27
2019-05-28T08:19:09.178Z,94890.33
2019-05-28T08:21:38.888Z,94897.02
2019-05-28T08:24:08.615Z,94899.07
2019-05-28T08:26:38.250Z,94887.17
2019-05-28T08:29:07.851Z,94884.95
2019-05-28T08:31:37.378Z,94878.69
2019-05-28T08:34:06.989Z,94872.25
2019-05-28T08:36:36.581Z,94880.66
2019-05-28T08:39:08.198Z,94873.02
2019-05-28T08:41:37.908Z,94871.97
2019-05-28T08:44:07.555Z,94877.85
2019-05-28T08:46:37.503Z,94877.45
2019-05-28T08:49:07.338Z,94864.88
2019-05-28T08:51:36.938Z,94863.59
2019-05-28T08:54:06.725Z,94870.98
2019-05-28T08:56:36.310Z,94879.45
2019-05-28T08:59:05.941Z,94871.50
2019-05-28T09:01:35.461Z,94874.52
2019-05-28T09:04:05.120Z,94871.77
2019-05-28T09:06:34.692Z,94870.45
2019-05-28T09:09:05.206Z,94864.70
2019-05-28T09:11:34.922Z,94849.58
2019-05-28T09:14:04.606Z,94857.00
2019-05-28T09:16:34.170Z,94851.09
2019-05-28T09:19:03.789Z,94846.23
2019-05-28T09:21:33.433Z,94849.73
2019-05-28T09:24:03.039Z,94856.77
2019-05-28T09:26:32.689Z,94850.04
2019-05-28T09:29:02.287Z,94855.53
2019-05-28T09:31:32.300Z,94854.59
2019-05-28T09:34:01.809Z,94842.06
2019-05-28T09:36:31.366Z,94844.13
2019-05-28T09:39:00.955Z,94845.23
2019-05-28T09:41:30.424Z,94846.00
2019-05-28T09:43:59.958Z,94835.53
2019-05-28T09:46:29.572Z,94841.48
2019-05-28T09:48:59.049Z,94828.52
2019-05-28T09:51:29.153Z,94832.13
2019-05-28T09:53:58.722Z,94834.05
2019-05-28T09:56:32.009Z,94832.87
2019-05-28T09:58:59.664Z,94831.16
2019-05-28T10:01:29.455Z,94834.85
2019-05-28T10:03:59.026Z,94817.70
2019-05-28T10:06:36.592Z,94824.82
2019-05-28T10:08:59.672Z,94817.87
2019-05-28T10:11:29.229Z,94822.05
2019-05-28T10:13:58.816Z,94821.50
2019-05-28T10:16:28.400Z,94807.07
2019-05-28T10:18:58.003Z,94792.27
2019-05-28T10:21:27.503Z,94795.35
2019-05-28T10:23:57.069Z,94791.31
2019-05-28T10:26:26.648Z,94779.86
2019-05-28T10:28:56.231Z,94778.85
2019-05-28T10:31:26.130Z,94776.67
2019-05-28T10:33:55.734Z,94783.38
2019-05-28T10:36:35.978Z,94783.48
2019-05-28T10:38:56.556Z,94768.64
2019-05-28T10:41:26.172Z,94768.81
2019-05-28T10:43:55.594Z,94764.93
2019-05-28T10:46:25.111Z,94763.39
2019-05-28T10:48:54.692Z,94755.28
2019-05-28T10:51:24.305Z,94751.17
2019-05-28T10:53:53.974Z,94740.36
2019-05-28T10:56:23.446Z,94736.37
2019-05-28T10:58:53.027Z,94738.46
2019-05-28T11:01:22.578Z,94735.31
2019-05-28T11:03:52.151Z,94742.47
2019-05-28T11:06:21.802Z,94748.57
2019-05-28T11:08:51.251Z,94739.95
2019-05-28T11:11:20.941Z,94739.73
2019-05-28T11:13:53.374Z,94724.51
2019-05-28T11:16:21.732Z,94714.23
2019-05-28T11:18:51.303Z,94712.80
2019-05-28T11:21:20.867Z,94706.30
2019-05-28T11:23:50.396Z,94716.61
2019-05-28T11:26:20.070Z,94712.75
2019-05-28T11:28:49.609Z,94706.95
2019-05-28T11:31:19.808Z,94706.14
2019-05-28T11:33:49.498Z,94712.48
2019-05-28T11:36:19.045Z,94704.91
2019-05-28T11:38:48.777Z,94694.77
2019-05-28T11:41:18.259Z,94684.06
2019-05-28T11:43:47.836Z,94679.30
2019-05-28T11:46:17.648Z,94680.39
2019-05-28T11:48:47.235Z,94683.77
2019-05-28T11:51:16.896Z,94695.89
2019-05-28T11:53:46.453Z,94703.78
2019-05-28T11:56:16.031Z,94695.33
2019-05-28T11:58:45.605Z,94676.50
2019-05-28T12:01:33.234Z,94675.84
2019-05-28T12:03:46.394Z,94683.13
2019-05-28T12:06:16.269Z,94665.80
2019-05-28T12:08:45.828Z,94672.86
2019-05-28T12:11:15.321Z,94664.59
2019-05-28T12:13:44.867Z,94671.73
2019-05-28T12:16:14.435Z,94668.19
2019-05-28T12:18:43.968Z,94649.40
2019-05-28T12:21:13.582Z,94658.64
2019-05-28T12:23:43.170Z,94652.60
2019-05-28T12:26:12.737Z,94645.20
2019-05-28T12:28:42.312Z,94642.43
2019-05-28T12:31:11.849Z,94639.58
2019-05-28T12:33:41.425Z,94654.13
2019-05-28T12:36:11.179Z,94647.14
2019-05-28T12:38:40.714Z,94629.02
2019-05-28T12:41:10.297Z,94625.27
2019-05-28T12:43:39.873Z,94623.63
2019-05-28T12:46:09.330Z,94620.20
2019-05-28T12:48:38.925Z,94624.09
2019-05-28T12:51:08.445Z,94622.07
2019-05-28T12:53:49.200Z,94618.69
2019-05-28T12:56:09.258Z,94616.56
2019-05-28T12:58:42.864Z,94610.22
2019-05-28T13:01:10.029Z,94608.66
2019-05-28T13:03:39.706Z,94624.80
2019-05-28T13:06:09.196Z,94609.81
2019-05-28T13:08:38.676Z,94611.02
2019-05-28T13:11:08.182Z,94604.17
2019-05-28T13:13:37.754Z,94600.14
2019-05-28T13:16:08.149Z,94587.72
2019-05-28T13:18:37.784Z,94591.72
2019-05-28T13:21:07.362Z,94591.39
2019-05-28T13:23:36.989Z,94598.03
2019-05-28T13:26:06.601Z,94590.81
2019-05-28T13:28:36.233Z,94583.80
2019-05-28T13:31:05.938Z,94588.81
2019-05-28T13:33:35.356Z,94586.21
2019-05-28T13:36:05.136Z,94583.13
2019-05-28T13:38:34.684Z,94574.17
2019-05-28T13:41:04.438Z,94584.53
2019-05-28T13:43:34.046Z,94570.41
2019-05-28T13:46:03.646Z,94572.67
2019-05-28T13:48:33.450Z,94579.55
2019-05-28T13:51:03.083Z,94554.43
2019-05-28T13:53:32.672Z,94573.50
2019-05-28T13:56:02.254Z,94555.29
2019-05-28T13:58:31.837Z,94551.03
2019-05-28T14:01:01.468Z,94555.64
2019-05-28T14:03:31.068Z,94554.25
2019-05-28T14:06:00.636Z,94551.55
2019-05-28T14:08:45.584Z,94543.68
2019-05-28T14:11:01.591Z,94553.83
2019-05-28T14:13:32.380Z,94547.98
2019-05-28T14:16:04.131Z,94550.96
2019-05-28T14:18:33.420Z,94563.73
2019-05-28T14:21:03.043Z,94552.28
2019-05-28T14:23:32.781Z,94545.14
2019-05-28T14:26:02.536Z,94551.01
2019-05-28T14:28:32.177Z,94544.17
2019-05-28T14:31:01.885Z,94543.27
2019-05-28T14:33:31.779Z,94528.39
2019-05-28T14:36:01.414Z,94536.26
2019-05-28T14:38:31.055Z,94528.96
2019-05-28T14:41:01.427Z,94533.09
2019-05-28T14:43:31.036Z,94529.70
2019-05-28T14:46:00.663Z,94533.80
2019-05-28T14:48:30.319Z,94535.09
2019-05-28T14:50:59.935Z,94545.09
2019-05-28T14:53:30.473Z,94544.70
2019-05-28T14:56:00.383Z,94543.56
2019-05-28T14:58:30.207Z,94535.02
2019-05-28T15:00:59.817Z,94533.70
2019-05-28T15:03:29.456Z,94524.65
2019-05-28T15:05:59.035Z,94528.25
2019-05-28T15:08:28.682Z,94521.88
2019-05-28T15:10:58.306Z,94336.50
2019-05-28T15:13:28.211Z,94532.54
2019-05-28T15:15:57.876Z,94516.31
2019-05-28T15:18:27.633Z,94514.89
2019-05-28T15:20:57.450Z,94510.75
2019-05-28T15:23:27.044Z,94509.48
2019-05-28T15:25:56.656Z,94501.74
2019-05-28T15:28:26.366Z,94496.24
2019-05-28T15:30:55.994Z,94488.52
2019-05-28T15:33:25.596Z,94495.46
2019-05-28T15:35:56.244Z,94506.84
2019-05-28T15:38:26.087Z,94505.14
2019-05-28T15:40:55.768Z,94507.13
2019-05-28T15:43:25.451Z,94501.60
2019-05-28T15:45:55.392Z,94506.69
2019-05-28T15:48:25.175Z,94499.36
2019-05-28T15:50:54.805Z,94503.00
2019-05-28T15:53:24.552Z,94501.44
2019-05-28T15:55:54.172Z,94502.02
2019-05-28T15:58:24.194Z,94501.39
2019-05-28T16:00:53.825Z,94499.55
2019-05-28T16:03:23.410Z,94501.08
2019-05-28T16:05:53.014Z,94492.89
2019-05-28T16:08:22.609Z,94492.92
2019-05-28T16:10:52.205Z,94494.88
2019-05-28T16:13:21.839Z,94491.47
2019-05-28T16:15:51.640Z,94496.55
2019-05-28T16:18:21.273Z,94490.13
2019-05-28T16:20:50.872Z,94496.70
2019-05-28T16:23:20.432Z,94488.28
2019-05-28T16:25:50.050Z,94507.28
2019-05-28T16:28:19.629Z,94506.05
2019-05-28T16:30:49.265Z,94493.81
2019-05-28T16:33:18.891Z,94490.30
2019-05-28T16:35:49.121Z,94488.84
2019-05-28T16:38:18.764Z,94485.16
2019-05-28T16:40:48.537Z,94488.23
2019-05-28T16:43:18.159Z,94495.33
2019-05-28T16:45:47.772Z,94493.37
2019-05-28T16:48:17.426Z,94492.41
2019-05-28T16:50:47.005Z,94489.41
2019-05-28T16:53:16.836Z,94483.64
2019-05-28T16:55:46.478Z,94482.05
2019-05-28T16:58:16.219Z,94491.58
2019-05-28T17:00:45.955Z,94491.26
2019-05-28T17:03:15.593Z,94487.11
2019-05-28T17:05:44.965Z,94491.41
2019-05-28T17:08:14.289Z,94505.03
2019-05-28T17:10:43.857Z,94504.22
2019-05-28T17:13:13.241Z,94510.34
2019-05-28T17:15:42.606Z,94503.28
2019-05-28T17:18:12.005Z,94506.84
2019-05-28T17:20:41.603Z,94510.95
2019-05-28T17:23:11.328Z,94512.48
2019-05-28T17:25:40.685Z,94515.82
2019-05-28T17:28:10.932Z,94506.21
2019-05-28T17:30:41.277Z,94515.22
2019-05-28T17:33:10.762Z,94521.11
2019-05-28T17:35:40.177Z,94510.54
2019-05-28T17:38:09.796Z,94512.80
2019-05-28T17:40:47.941Z,94513.79
2019-05-28T17:43:10.528Z,94520.63
2019-05-28T17:45:39.948Z,94523.52
2019-05-28T17:48:09.576Z,94530.41
2019-05-28T17:50:39.614Z,94530.05
2019-05-28T17:53:09.053Z,94540.33
2019-05-28T17:55:38.578Z,94532.69
2019-05-28T17:58:08.139Z,94542.48
2019-05-28T18:00:37.548Z,94534.88
2019-05-28T18:03:07.631Z,94535.86
2019-05-28T18:05:36.969Z,94541.13
2019-05-28T18:08:06.654Z,94541.78
2019-05-28T18:10:36.030Z,94540.61
2019-05-28T18:13:05.406Z,94550.52
2019-05-28T18:15:34.753Z,94554.67
2019-05-28T18:18:04.582Z,94545.22
2019-05-28T18:20:34.041Z,94557.88
2019-05-28T18:23:03.451Z,94552.45
2019-05-28T18:25:32.792Z,94568.05
2019-05-28T18:28:02.347Z,94564.86
2019-05-28T18:30:32.172Z,94563.25
2019-05-28T18:33:01.675Z,94563.95
2019-05-28T18:35:31.772Z,94562.22
2019-05-28T18:38:04.389Z,94569.10
2019-05-28T18:40:32.522Z,94578.82
2019-05-28T18:43:02.025Z,94587.11
2019-05-28T18:45:31.475Z,94587.11
2019-05-28T18:48:01.016Z,94580.66
2019-05-28T18:50:31.677Z,94596.58
2019-05-28T18:53:01.057Z,94596.58
2019-05-28T18:55:30.550Z,94595.91
2019-05-28T18:57:59.956Z,94604.30
2019-05-28T19:00:29.336Z,94604.30
2019-05-28T19:02:58.793Z,94605.56
2019-05-28T19:05:28.218Z,94618.14
2019-05-28T19:07:58.026Z,94623.70
2019-05-28T19:10:27.785Z,94634.72
2019-05-28T19:12:58.305Z,94626.25
2019-05-28T19:15:27.902Z,94617.27
2019-05-28T19:17:58.977Z,94631.88
2019-05-28T19:20:28.430Z,94631.28
2019-05-28T19:22:57.814Z,94622.33
2019-05-28T19:25:27.531Z,94628.67
2019-05-28T19:27:57.438Z,94635.22
2019-05-28T19:30:34.383Z,94634.99
2019-05-28T19:33:05.432Z,94645.74
2019-05-28T19:35:35.364Z,94647.82
2019-05-28T19:38:05.330Z,94646.21
2019-05-28T19:40:37.043Z,94651.63
2019-05-28T19:43:07.003Z,94612.00
2019-05-28T19:45:37.468Z,94659.28
2019-05-28T19:48:07.664Z,94659.75
2019-05-28T19:50:40.085Z,94660.67
2019-05-28T19:53:09.589Z,94672.63
2019-05-28T19:55:39.281Z,94674.52
2019-05-28T19:58:08.842Z,94681.27
2019-05-28T20:00:38.281Z,94687.86
2019-05-28T20:03:10.724Z,94685.05
2019-05-28T20:05:40.150Z,94674.00
2019-05-28T20:08:09.772Z,94683.55
2019-05-28T20:10:39.752Z,94685.14
2019-05-28T20:13:13.701Z,94686.00
2019-05-28T20:15:43.009Z,94687.87
2019-05-28T20:18:25.831Z,94679.33
2019-05-28T20:20:43.823Z,94687.94
2019-05-28T20:23:13.309Z,94691.73
2019-05-28T20:25:42.662Z,94704.66
2019-05-28T20:28:12.312Z,94698.25
2019-05-28T20:30:41.628Z,94695.59
2019-05-28T20:33:11.029Z,94704.06
2019-05-28T20:35:40.399Z,94702.92
2019-05-28T20:38:12.427Z,94699.28
2019-05-28T20:40:40.790Z,94704.03
2019-05-28T20:43:10.414Z,94713.46
2019-05-28T20:45:39.801Z,94712.52
2019-05-28T20:48:09.158Z,94710.95
2019-05-28T20:50:38.539Z,94706.28
2019-05-28T20:53:07.969Z,94713.38
2019-05-28T20:55:37.290Z,94709.13
2019-05-28T20:58:06.722Z,94715.44
2019-05-28T21:00:36.047Z,94710.56
2019-05-28T21:03:05.430Z,94715.65
2019-05-28T21:05:34.862Z,94718.02
2019-05-28T21:08:04.198Z,94722.33
2019-05-28T21:10:33.929Z,94727.42
2019-05-28T21:13:03.672Z,94729.37
2019-05-28T21:15:33.015Z,94725.10
2019-05-28T21:18:02.470Z,94728.80
2019-05-28T21:20:31.864Z,94734.05
2019-05-28T21:23:01.310Z,94734.23
2019-05-28T21:25:30.669Z,94735.84
2019-05-28T21:28:00.683Z,94748.15
2019-05-28T21:30:30.276Z,94745.62
2019-05-28T21:33:00.806Z,94752.08
2019-05-28T21:35:30.345Z,94755.44
2019-05-28T21:37:59.731Z,94750.55
2019-05-28T21:40:29.080Z,94748.43
2019-05-28T21:43:04.723Z,94749.80
2019-05-28T21:45:29.559Z,94758.95
2019-05-28T21:47:58.934Z,94766.16
2019-05-28T21:50:28.311Z,94760.32
2019-05-28T21:52:58.960Z,94764.66
2019-05-28T21:55:28.426Z,94759.98
2019-05-28T21:57:57.824Z,94765.45
2019-05-28T22:00:49.882Z,94765.07
2019-05-28T22:03:19.311Z,94767.63
2019-05-28T22:05:48.619Z,94760.80
2019-05-28T22:08:17.976Z,94770.16
2019-05-28T22:10:47.691Z,94776.41
2019-05-28T22:13:22.142Z,94772.34
2019-05-28T22:15:48.211Z,94767.45
2019-05-28T22:18:17.632Z,94767.83
2019-05-28T22:20:47.213Z,94758.67
2019-05-28T22:23:16.982Z,94765.91
2019-05-28T22:25:46.518Z,94761.23
2019-05-28T22:28:15.990Z,94763.79
2019-05-28T22:30:45.502Z,94773.77
2019-05-28T22:33:14.888Z,94770.04
2019-05-28T22:35:45.359Z,94772.97
2019-05-28T22:38:14.879Z,94783.70
2019-05-28T22:40:44.266Z,94777.28
2019-05-28T22:43:13.603Z,94781.17
2019-05-28T22:45:43.550Z,94778.45
2019-05-28T22:48:16.433Z,94780.41
2019-05-28T22:50:44.418Z,94048.91
2019-05-28T22:53:13.815Z,94780.00
2019-05-28T22:55:43.127Z,94784.12
2019-05-28T22:58:12.472Z,94781.39
2019-05-28T23:00:41.883Z,94782.20
2019-05-28T23:03:11.256Z,94787.25
2019-05-28T23:05:40.806Z,94783.14
2019-05-28T23:08:10.249Z,94790.80
2019-05-28T23:10:39.589Z,94787.45
2019-05-28T23:13:09.188Z,94792.91
2019-05-28T23:15:38.588Z,94785.72
2019-05-28T23:18:09.274Z,94789.02
2019-05-28T23:20:39.148Z,94786.49
2019-05-28T23:23:09.367Z,94796.80
2019-05-28T23:25:38.915Z,94800.90
2019-05-28T23:28:08.253Z,94797.01
2019-05-28T23:30:37.611Z,94798.55
2019-05-28T23:33:09.929Z,94797.80
2019-05-28T23:35:38.002Z,94801.52
2019-05-28T23:38:07.363Z,94804.23
2019-05-28T23:40:36.737Z,94811.46
2019-05-28T23:43:07.347Z,94808.31
2019-05-28T23:45:36.761Z,94812.23
2019-05-28T23:48:10.754Z,94805.22
2019-05-28T23:50:37.204Z,94809.31
2019-05-28T23:53:07.645Z,94813.22
2019-05-28T23:55:37.121Z,94811.27
2019-05-28T23:58:07.608Z,94807.19
